createdAt,value
2022-10-05T00:09:56.180Z,8.20
2022-10-05T00:19:56.190Z,8.60
2022-10-05T00:29:56.191Z,7.60
2022-10-05T00:39:56.206Z,7.20
2022-10-05T00:49:56.540Z,6.70
2022-10-05T00:59:56.200Z,8.10
2022-10-05T01:09:56.221Z,6.80
2022-10-05T01:19:56.260Z,7.60
2022-10-05T01:29:56.215Z,7.30
2022-10-05T01:39:56.226Z,7.40
2022-10-05T01:49:56.256Z,7.30
2022-10-05T01:59:56.226Z,6.40
2022-10-05T02:09:56.238Z,6.50
2022-10-05T02:19:56.240Z,9.10
2022-10-05T02:29:56.308Z,6.20
2022-10-05T02:39:56.325Z,7.00
2022-10-05T02:49:56.360Z,7.20
2022-10-05T02:59:56.240Z,8.20
2022-10-05T03:10:00.792Z,6.90
2022-10-05T03:19:56.255Z,6.40
2022-10-05T03:29:56.258Z,5.90
2022-10-05T03:39:56.257Z,5.70
2022-10-05T03:49:56.592Z,6.40
2022-10-05T03:59:56.262Z,6.10
2022-10-05T04:19:56.268Z,5.90
2022-10-05T04:29:56.286Z,5.70
2022-10-05T04:39:56.305Z,5.70
2022-10-05T04:49:56.617Z,5.10
2022-10-05T04:59:56.283Z,5.30
2022-10-05T05:09:56.298Z,5.00
2022-10-05T05:19:56.299Z,4.20
2022-10-05T05:29:56.300Z,5.10
2022-10-05T05:39:56.310Z,4.80
2022-10-05T05:49:56.342Z,4.90
2022-10-05T05:59:56.310Z,4.90
2022-10-05T06:09:56.311Z,3.80
2022-10-05T06:19:58.973Z,3.90
2022-10-05T06:29:56.328Z,4.00
2022-10-05T06:40:00.797Z,4.00
2022-10-05T06:49:56.365Z,4.10
2022-10-05T06:59:56.333Z,3.90
2022-10-05T07:09:56.347Z,4.10
2022-10-05T07:19:56.345Z,4.30
2022-10-05T07:29:56.341Z,4.60
2022-10-05T07:40:00.648Z,4.00
2022-10-05T07:49:56.399Z,4.00
2022-10-05T07:59:56.357Z,3.90
2022-10-05T08:09:56.357Z,4.00
2022-10-05T08:19:56.361Z,3.40
2022-10-05T08:29:56.370Z,3.20
2022-10-05T08:39:56.413Z,3.90
2022-10-05T08:49:56.405Z,3.10
2022-10-05T08:59:56.391Z,4.00
2022-10-05T09:10:01.411Z,3.40
2022-10-05T09:19:56.388Z,3.10
2022-10-05T09:29:56.386Z,2.90
2022-10-05T09:40:00.530Z,3.30
2022-10-05T09:49:56.434Z,3.60
2022-10-05T09:59:56.425Z,2.00
2022-10-05T10:09:56.426Z,2.20
2022-10-05T10:19:56.418Z,1.80
2022-10-05T10:29:56.429Z,1.40
2022-10-05T10:39:56.423Z,1.30
2022-10-05T10:49:56.460Z,1.60
2022-10-05T10:59:56.432Z,1.70
2022-10-05T11:09:56.444Z,1.90
2022-10-05T11:20:03.959Z,2.90
2022-10-05T11:29:56.451Z,1.60
2022-10-05T11:39:56.450Z,1.00
2022-10-05T11:49:56.480Z,1.40
2022-10-05T11:59:56.459Z,1.50
2022-10-05T12:09:56.460Z,1.30
2022-10-05T12:19:56.465Z,1.50
2022-10-05T12:29:56.470Z,1.70
2022-10-05T12:39:56.482Z,2.00
2022-10-05T12:49:56.514Z,1.00
2022-10-05T12:59:56.506Z,1.30
2022-10-05T13:09:56.493Z,2.00
2022-10-05T13:19:56.500Z,1.40
2022-10-05T13:29:56.510Z,1.00
2022-10-05T13:39:56.503Z,1.10
2022-10-05T13:49:56.546Z,1.00
2022-10-05T13:59:56.522Z,0.90
2022-10-05T14:09:56.527Z,1.40
2022-10-05T14:19:56.526Z,4.60
2022-10-05T14:29:56.523Z,1.00
2022-10-05T14:39:56.638Z,0.90
2022-10-05T14:49:56.570Z,1.30
2022-10-05T14:59:56.547Z,1.20
2022-10-05T15:09:56.639Z,1.00
2022-10-05T15:19:56.629Z,1.40
2022-10-05T15:29:56.627Z,1.20
2022-10-05T15:39:56.655Z,1.60
2022-10-05T15:49:56.667Z,3.30
2022-10-05T15:59:56.584Z,1.70
2022-10-05T16:09:56.570Z,1.50
2022-10-05T16:19:56.582Z,2.00
2022-10-05T16:29:56.580Z,3.30
2022-10-05T16:39:56.580Z,2.20
2022-10-05T16:49:56.630Z,1.80
2022-10-05T16:59:56.595Z,2.90
2022-10-05T17:09:56.597Z,10.80
2022-10-05T17:19:56.607Z,2.80
2022-10-05T17:29:56.613Z,4.30
2022-10-05T17:39:56.617Z,3.20
2022-10-05T17:49:56.662Z,3.60
2022-10-05T17:59:56.630Z,3.80
2022-10-05T18:09:56.643Z,4.10
2022-10-05T18:19:56.706Z,4.40
2022-10-05T18:29:56.786Z,5.10
2022-10-05T18:39:56.788Z,5.20
2022-10-05T18:49:56.854Z,4.60
2022-10-05T18:59:56.733Z,4.30
2022-10-05T19:09:56.742Z,4.60
2022-10-05T19:19:56.707Z,5.00
2022-10-05T19:29:56.661Z,5.50
2022-10-05T19:39:56.665Z,5.10
2022-10-05T19:49:56.701Z,5.30
2022-10-05T19:59:56.710Z,5.70
2022-10-05T20:09:56.874Z,5.50
2022-10-05T20:19:56.713Z,6.00
2022-10-05T20:29:56.679Z,6.10
2022-10-05T20:39:56.702Z,6.10
2022-10-05T20:49:56.718Z,6.10
2022-10-05T20:59:56.695Z,5.60
2022-10-05T21:09:56.711Z,5.60
2022-10-05T21:19:56.696Z,5.30
2022-10-05T21:29:56.708Z,5.10
2022-10-05T21:39:56.725Z,5.30
2022-10-05T21:49:56.740Z,5.20
2022-10-05T21:59:56.708Z,5.20
2022-10-05T22:09:56.719Z,5.90
2022-10-05T22:19:56.725Z,6.10
2022-10-05T22:39:56.721Z,7.70
2022-10-05T22:49:56.764Z,5.00
2022-10-05T22:59:56.743Z,4.20
2022-10-05T23:09:56.734Z,4.50
2022-10-05T23:19:56.738Z,4.30
2022-10-05T23:29:56.738Z,4.20
2022-10-05T23:39:56.755Z,4.40
2022-10-05T23:49:56.787Z,4.60
2022-10-05T23:59:56.761Z,4.00
